Robbins, CA (95676)

11:28 AM PST on December 20, 2014 (GMT -0800)
Arboga, CA | Change Station
CLOSE
Current Station
Personal Weather Station
Location: Olivehurst, CA
Elevation: 49 ft
Nearby Weather Stations

Elev 49 ft 39.05 °N, 121.58 °W | Updated 8 minutes ago

Overcast
Overcast
54.9 °F
Feels Like 54.9 °F
N
7.8
Wind Variable Wind from South

Today
High -- | Low -- °F
--% Chance of Precip.
Yesterday
High -- | Low -- °F
Precip. -- in
7:21 AM 4:47 PM
Waning Crescent, 2% visible
Pressure 30.22 in
Visibility 10.0 miles
Clouds Few 900 ft
Scattered Clouds 8500 ft
Overcast 15000 ft
Dew Point 52 °F
Humidity 91%
Rainfall 0.00 in
Snow Depth Not available.
UV 1 out of 12
Pollen 2.90 out of 12
Air Quality Not available.
Flu Activity Not available.
METAR KSMF 201853Z 16009KT 10SM FEW009 SCT085 OVC150 13/11 A3021 RMK AO2 SLP231 T01280106 $

More Conditions Fewer Conditions

Pressure 30.22 in
Visibility 10.0 miles
Clouds Few 900 ft
Scattered Clouds 8500 ft
Overcast 15000 ft
Dew Point 52 °F
Humidity 91%
Rainfall 0.00 in
Snow Depth Not available.
UV 1 out of 12
Pollen 2.90 out of 12
Air Quality Not available.
Flu Activity Not available.
METAR KSMF 201853Z 16009KT 10SM FEW009 SCT085 OVC150 13/11 A3021 RMK AO2 SLP231 T01280106 $

More Conditions Fewer Conditions

10-Day Weather Forecast

Almanac

Astronomy

Dec. 20, 2014 Rise Set
Actual Time
Civil Twilight
Nautical Twilight
Astronomical Twilight
Moon
Length of Visible Light
Length of Day
Tomorrow will be .
, % of the Moon is Illuminated

Today's Extremes

State Highs State Lows

Community

WunderPhotos

Upload Photos

1,779,256 photos uploaded!

WunderBlogs® & News

Nearby

Air Quality

  Air Quality AQ Index Pollutant
Not available.

Snow Depth

Station Depth Elevation

Earthquake Activity

City Distance Mag. Time & Date
Minimum magnitude displayed is 2.5.

Coastal Water Temperatures

Place Temperature

Nearby Weather Stations